createdAt,value
2018-12-09T00:01:59.755Z,80.33
2018-12-09T00:04:32.096Z,72.57
2018-12-09T00:07:05.128Z,52.07
2018-12-09T00:09:37.198Z,40.90
2018-12-09T00:12:09.311Z,33.60
2018-12-09T00:14:42.062Z,28.43
2018-12-09T00:17:13.969Z,9.43
2018-12-09T00:19:46.144Z,3.80
2018-12-09T00:22:18.665Z,5.20
2018-12-09T00:24:51.415Z,4.93
2018-12-09T00:27:23.420Z,6.43
2018-12-09T00:29:56.019Z,3.93
2018-12-09T00:32:28.273Z,4.73
2018-12-09T00:35:01.701Z,4.50
2018-12-09T00:37:34.448Z,6.03
2018-12-09T00:40:07.169Z,4.00
2018-12-09T00:42:43.386Z,5.57
2018-12-09T00:45:13.354Z,5.97
2018-12-09T00:47:45.411Z,4.90
2018-12-09T00:50:17.348Z,6.13
2018-12-09T00:52:49.569Z,5.53
2018-12-09T00:55:21.437Z,5.70
2018-12-09T00:57:53.114Z,5.57
2018-12-09T01:00:25.347Z,6.20
2018-12-09T01:02:57.596Z,4.40
2018-12-09T01:05:30.105Z,4.17
2018-12-09T01:08:02.194Z,7.23
2018-12-09T01:10:33.918Z,5.80
2018-12-09T01:13:05.928Z,5.80
2018-12-09T01:15:37.950Z,6.03
2018-12-09T01:18:10.235Z,5.97
2018-12-09T01:20:42.372Z,5.17
2018-12-09T01:23:14.489Z,5.80
2018-12-09T01:25:46.594Z,5.93
2018-12-09T01:28:19.531Z,5.70
2018-12-09T01:30:51.774Z,5.43
2018-12-09T01:33:23.736Z,6.07
2018-12-09T01:35:55.921Z,5.23
2018-12-09T01:38:28.034Z,4.47
2018-12-09T01:41:00.257Z,3.87
2018-12-09T01:43:32.474Z,3.43
2018-12-09T01:46:05.212Z,4.73
2018-12-09T01:48:37.212Z,4.87
2018-12-09T01:51:09.494Z,5.33
2018-12-09T01:54:44.789Z,3.67
2018-12-09T01:57:16.770Z,4.40
2018-12-09T01:59:48.455Z,4.90
2018-12-09T02:02:20.667Z,3.23
2018-12-09T02:04:53.409Z,3.43
2018-12-09T02:07:26.094Z,8.43
2018-12-09T02:09:58.480Z,7.93
2018-12-09T02:12:30.220Z,7.57
2018-12-09T02:15:02.368Z,9.93
2018-12-09T02:17:35.082Z,9.07
2018-12-09T02:20:07.317Z,6.57
2018-12-09T02:22:39.633Z,5.70
2018-12-09T02:25:11.716Z,4.17
2018-12-09T02:27:44.263Z,3.13
2018-12-09T02:30:16.422Z,3.43
2018-12-09T02:32:48.861Z,3.20
2018-12-09T02:35:21.394Z,2.53
2018-12-09T02:37:54.034Z,3.53
2018-12-09T02:40:26.416Z,3.77
2018-12-09T02:42:58.820Z,5.13
2018-12-09T02:45:31.750Z,3.93
2018-12-09T02:48:04.234Z,3.73
2018-12-09T02:50:36.550Z,3.70
2018-12-09T02:53:08.815Z,2.60
2018-12-09T02:55:41.443Z,3.10
2018-12-09T02:58:13.264Z,2.93
2018-12-09T03:00:45.567Z,3.73
2018-12-09T03:03:17.892Z,4.17
2018-12-09T03:05:50.619Z,6.43
2018-12-09T03:08:23.523Z,4.60
2018-12-09T03:10:56.161Z,4.77
2018-12-09T03:13:29.459Z,3.60
2018-12-09T03:16:01.808Z,4.13
2018-12-09T03:18:33.964Z,3.30
2018-12-09T03:21:06.517Z,3.97
2018-12-09T03:23:39.749Z,5.00
2018-12-09T03:26:12.196Z,6.60
2018-12-09T03:28:44.876Z,4.60
2018-12-09T03:31:17.353Z,3.33
2018-12-09T03:33:49.771Z,3.33
2018-12-09T03:36:22.230Z,3.20
2018-12-09T03:38:54.765Z,3.73
2018-12-09T03:41:26.778Z,3.53
2018-12-09T03:43:58.877Z,3.40
2018-12-09T03:46:32.488Z,3.93
2018-12-09T03:49:04.651Z,3.80
2018-12-09T03:51:36.908Z,3.10
2018-12-09T03:54:10.078Z,3.40
2018-12-09T03:56:43.606Z,3.80
2018-12-09T03:59:16.792Z,3.43
2018-12-09T04:01:49.219Z,3.80
2018-12-09T04:04:21.538Z,4.43
2018-12-09T04:06:54.625Z,4.10
2018-12-09T04:09:26.710Z,4.20
2018-12-09T04:11:58.864Z,3.90
2018-12-09T04:14:31.326Z,4.73
2018-12-09T04:17:04.541Z,5.10
2018-12-09T04:19:37.574Z,5.37
2018-12-09T04:22:09.586Z,5.03
2018-12-09T04:24:42.021Z,5.70
2018-12-09T04:27:13.857Z,4.83
2018-12-09T04:29:45.814Z,5.40
2018-12-09T04:32:17.939Z,4.47
2018-12-09T04:34:50.969Z,6.00
2018-12-09T04:37:23.064Z,6.03
2018-12-09T04:39:55.218Z,6.33
2018-12-09T04:42:26.999Z,6.00
2018-12-09T04:44:58.959Z,5.63
2018-12-09T04:47:31.620Z,4.90
2018-12-09T04:50:03.627Z,7.40
2018-12-09T04:52:35.857Z,6.17
2018-12-09T04:55:09.855Z,8.60
2018-12-09T04:57:42.089Z,8.77
2018-12-09T05:00:30.609Z,7.87
2018-12-09T05:03:03.384Z,6.13
2018-12-09T05:05:35.260Z,5.33
2018-12-09T05:08:07.511Z,7.90
2018-12-09T05:10:39.657Z,7.40
2018-12-09T05:13:11.803Z,7.63
2018-12-09T05:15:43.965Z,7.73
2018-12-09T05:18:15.909Z,8.13
2018-12-09T05:20:49.174Z,7.30
2018-12-09T05:23:21.137Z,13.70
2018-12-09T05:25:53.306Z,11.40
2018-12-09T05:28:25.309Z,9.33
2018-12-09T05:30:57.700Z,7.10
2018-12-09T05:33:30.770Z,8.63
2018-12-09T05:36:02.738Z,7.63
2018-12-09T05:38:35.697Z,8.73
2018-12-09T05:41:07.638Z,8.80
2018-12-09T05:43:39.723Z,10.67
2018-12-09T05:46:11.836Z,9.10
2018-12-09T05:48:44.104Z,9.50
2018-12-09T05:51:16.089Z,17.93
2018-12-09T05:53:47.844Z,13.57
2018-12-09T05:56:19.542Z,9.87
2018-12-09T05:58:52.099Z,8.97
2018-12-09T06:01:24.570Z,5.37
2018-12-09T06:03:56.959Z,4.87
2018-12-09T06:06:29.121Z,7.00
2018-12-09T06:09:01.842Z,10.67
2018-12-09T06:11:33.973Z,6.20
2018-12-09T06:14:06.037Z,7.57
2018-12-09T06:16:38.620Z,7.90
2018-12-09T06:19:10.792Z,12.00
2018-12-09T06:21:43.048Z,8.80
2018-12-09T06:24:15.109Z,9.57
2018-12-09T06:26:47.522Z,8.20
2018-12-09T06:29:19.696Z,7.47
2018-12-09T06:31:51.803Z,8.40
2018-12-09T06:34:24.900Z,11.27
2018-12-09T06:36:57.505Z,12.77
2018-12-09T06:39:29.795Z,17.67
2018-12-09T06:42:02.330Z,14.63
2018-12-09T06:44:34.942Z,19.10
2018-12-09T06:47:07.802Z,16.93
2018-12-09T06:49:40.145Z,13.40
2018-12-09T06:52:13.310Z,13.83
2018-12-09T06:54:48.508Z,14.13
2018-12-09T06:57:20.698Z,11.80
2018-12-09T06:59:52.972Z,17.43
2018-12-09T07:02:25.418Z,27.30
2018-12-09T07:04:58.725Z,47.40
2018-12-09T07:07:31.525Z,22.30
2018-12-09T07:10:03.833Z,18.73
2018-12-09T07:12:36.295Z,14.77
2018-12-09T07:15:09.361Z,16.57
2018-12-09T07:17:41.728Z,15.83
2018-12-09T07:20:14.165Z,13.83
2018-12-09T07:22:46.594Z,12.50
2018-12-09T07:25:18.912Z,14.37
2018-12-09T07:27:52.266Z,13.53
2018-12-09T07:30:24.624Z,13.53
2018-12-09T07:32:57.074Z,13.67
2018-12-09T07:35:29.729Z,15.33
2018-12-09T07:38:02.181Z,11.70
2018-12-09T07:40:34.683Z,9.80
2018-12-09T07:43:06.821Z,11.47
2018-12-09T07:45:39.985Z,8.13
2018-12-09T07:48:12.292Z,11.73
2018-12-09T07:50:44.778Z,12.90
2018-12-09T07:53:17.342Z,8.27
2018-12-09T07:55:49.328Z,10.73
2018-12-09T07:58:21.759Z,11.73
2018-12-09T08:00:54.847Z,12.23
2018-12-09T08:03:27.631Z,13.37
2018-12-09T08:06:00.370Z,10.37
2018-12-09T08:08:32.839Z,9.50
2018-12-09T08:11:04.684Z,8.20
2018-12-09T08:13:36.675Z,8.10
2018-12-09T08:16:09.223Z,8.50
2018-12-09T08:18:42.211Z,10.20
2018-12-09T08:21:14.871Z,6.73
2018-12-09T08:23:47.452Z,7.03
2018-12-09T08:26:20.285Z,7.70
2018-12-09T08:28:52.611Z,7.00
2018-12-09T08:31:25.434Z,7.57
2018-12-09T08:33:58.209Z,8.90
2018-12-09T08:36:30.558Z,13.00
2018-12-09T08:39:04.833Z,9.60
2018-12-09T08:41:37.322Z,12.97
2018-12-09T08:44:11.209Z,9.77
2018-12-09T08:46:43.925Z,8.73
2018-12-09T08:49:16.436Z,10.80
2018-12-09T08:51:49.312Z,15.10
2018-12-09T08:54:21.565Z,10.63
2018-12-09T08:56:54.168Z,13.40
2018-12-09T08:59:26.940Z,11.60
2018-12-09T09:01:59.891Z,8.77
2018-12-09T09:04:32.345Z,9.53
2018-12-09T09:07:05.085Z,10.30
2018-12-09T09:09:37.355Z,12.23
2018-12-09T09:12:09.747Z,14.90
2018-12-09T09:14:42.685Z,10.93
2018-12-09T09:17:15.201Z,11.70
2018-12-09T09:19:47.956Z,10.80
2018-12-09T09:22:20.530Z,7.60
2018-12-09T09:24:53.218Z,7.80
2018-12-09T09:27:25.532Z,9.63
2018-12-09T09:29:57.966Z,9.20
2018-12-09T09:32:30.151Z,11.63
2018-12-09T09:35:02.614Z,7.67
2018-12-09T09:37:34.930Z,9.17
2018-12-09T09:40:09.107Z,8.27
2018-12-09T09:42:41.495Z,11.60
2018-12-09T09:45:14.124Z,10.27
2018-12-09T09:47:46.479Z,6.77
2018-12-09T09:50:18.764Z,4.40
2018-12-09T09:52:50.641Z,5.77
2018-12-09T09:55:22.641Z,4.70
2018-12-09T09:57:55.039Z,4.60
2018-12-09T10:00:27.080Z,5.23
2018-12-09T10:02:59.151Z,7.30
2018-12-09T10:05:32.117Z,6.23
2018-12-09T10:08:04.497Z,5.83
2018-12-09T10:10:36.542Z,7.23
2018-12-09T10:13:08.749Z,4.53
2018-12-09T10:15:40.751Z,5.40
2018-12-09T10:18:14.284Z,4.63
2018-12-09T10:20:46.697Z,5.63
2018-12-09T10:23:18.887Z,5.20
2018-12-09T10:25:51.244Z,4.43
2018-12-09T10:28:24.040Z,4.77
2018-12-09T10:30:56.328Z,6.17
2018-12-09T10:33:28.740Z,6.50
2018-12-09T10:36:00.788Z,6.60
2018-12-09T10:38:33.217Z,8.13
2018-12-09T10:41:05.699Z,6.40
2018-12-09T10:43:38.153Z,6.00
2018-12-09T10:46:11.368Z,6.10
2018-12-09T10:48:43.626Z,5.50
2018-12-09T10:51:15.905Z,4.03
2018-12-09T10:53:48.175Z,4.10
2018-12-09T10:56:20.762Z,4.07
2018-12-09T10:58:53.096Z,4.17
2018-12-09T11:01:32.813Z,4.30
2018-12-09T11:04:07.319Z,3.87
2018-12-09T11:06:39.915Z,4.00
2018-12-09T11:09:12.141Z,3.70
2018-12-09T11:11:44.327Z,4.00
2018-12-09T11:14:16.752Z,5.00
2018-12-09T11:16:49.357Z,4.67
2018-12-09T11:19:21.663Z,4.93
2018-12-09T11:21:54.136Z,4.70
2018-12-09T11:24:25.818Z,5.20
2018-12-09T11:26:57.705Z,5.00
2018-12-09T11:29:29.473Z,4.70
2018-12-09T11:32:01.894Z,4.70
2018-12-09T11:34:34.256Z,4.37
2018-12-09T11:37:06.726Z,5.03
2018-12-09T11:39:39.587Z,5.13
2018-12-09T11:42:12.117Z,5.43
2018-12-09T11:44:44.954Z,6.17
2018-12-09T11:47:17.128Z,5.67
2018-12-09T11:49:49.609Z,5.27
2018-12-09T11:52:22.069Z,6.70
2018-12-09T11:54:54.551Z,7.20
2018-12-09T11:57:27.372Z,6.27
2018-12-09T11:59:59.735Z,5.90
2018-12-09T12:02:32.134Z,6.10
2018-12-09T12:05:04.605Z,5.90
2018-12-09T12:07:36.778Z,6.57
2018-12-09T12:10:09.672Z,8.20
2018-12-09T12:12:41.810Z,7.47
2018-12-09T12:15:14.142Z,7.40
2018-12-09T12:17:46.388Z,8.27
2018-12-09T12:20:18.790Z,8.63
2018-12-09T12:22:51.062Z,8.43
2018-12-09T12:25:23.549Z,7.43
2018-12-09T12:27:55.942Z,8.73
2018-12-09T12:30:28.389Z,8.77
2018-12-09T12:33:00.681Z,9.97
2018-12-09T12:35:33.437Z,8.40
2018-12-09T12:38:05.765Z,9.30
2018-12-09T12:40:38.107Z,9.30
2018-12-09T12:43:10.407Z,10.33
2018-12-09T12:45:44.819Z,8.93
2018-12-09T12:48:17.096Z,10.13
2018-12-09T12:50:49.647Z,8.20
2018-12-09T12:53:22.615Z,7.97
2018-12-09T12:55:55.752Z,7.87
2018-12-09T12:58:28.108Z,8.57
2018-12-09T13:01:00.658Z,8.97
2018-12-09T13:03:33.280Z,8.23
2018-12-09T13:06:05.584Z,8.40
2018-12-09T13:08:39.313Z,7.37
2018-12-09T13:11:12.202Z,8.80
2018-12-09T13:13:44.771Z,7.83
2018-12-09T13:16:17.400Z,6.87
2018-12-09T13:18:50.045Z,6.57
2018-12-09T13:21:23.204Z,7.60
2018-12-09T13:23:57.045Z,7.90
2018-12-09T13:26:29.330Z,6.80
2018-12-09T13:29:01.934Z,7.37
2018-12-09T13:31:34.579Z,6.67
2018-12-09T13:34:07.445Z,7.17
2018-12-09T13:36:39.757Z,7.93
2018-12-09T13:39:12.021Z,7.43
2018-12-09T13:41:44.944Z,7.50
2018-12-09T13:44:17.565Z,7.63
2018-12-09T13:46:49.849Z,6.87
2018-12-09T13:49:22.475Z,6.17
2018-12-09T13:51:55.002Z,6.67
2018-12-09T13:54:27.460Z,8.03
2018-12-09T13:56:59.927Z,8.43
2018-12-09T13:59:32.410Z,7.80
2018-12-09T14:02:06.079Z,7.67
2018-12-09T14:04:38.568Z,7.53
2018-12-09T14:07:11.536Z,7.17
2018-12-09T14:09:43.971Z,7.33
2018-12-09T14:12:16.766Z,7.30
2018-12-09T14:14:49.024Z,7.67
2018-12-09T14:17:21.295Z,8.63
2018-12-09T14:19:54.547Z,8.80
2018-12-09T14:22:27.245Z,8.40
2018-12-09T14:24:59.524Z,7.90
2018-12-09T14:27:32.309Z,11.67
2018-12-09T14:30:05.264Z,10.67
2018-12-09T14:32:37.474Z,8.67
2018-12-09T14:35:11.206Z,10.70
2018-12-09T14:37:43.588Z,8.17
2018-12-09T14:40:16.225Z,7.97
2018-12-09T14:42:49.084Z,8.63
2018-12-09T14:45:22.521Z,10.90
2018-12-09T14:47:55.816Z,10.73
2018-12-09T14:50:28.818Z,11.53
2018-12-09T14:53:01.394Z,12.50
2018-12-09T14:55:33.797Z,14.80
2018-12-09T14:58:06.717Z,12.83
2018-12-09T15:00:38.879Z,11.17
2018-12-09T15:03:11.165Z,12.77
2018-12-09T15:05:43.974Z,10.73
2018-12-09T15:08:16.385Z,9.13
2018-12-09T15:10:48.870Z,7.70
2018-12-09T15:13:21.568Z,8.80
2018-12-09T15:15:54.396Z,10.07
2018-12-09T15:18:26.684Z,9.43
2018-12-09T15:21:00.490Z,10.73
2018-12-09T15:23:35.309Z,14.70
2018-12-09T15:26:07.956Z,14.63
2018-12-09T15:28:40.558Z,11.30
2018-12-09T15:31:12.962Z,7.43
2018-12-09T15:33:45.554Z,7.37
2018-12-09T15:36:18.640Z,8.30
2018-12-09T15:38:51.542Z,12.10
2018-12-09T15:41:23.948Z,15.63
2018-12-09T15:43:56.117Z,11.60
2018-12-09T15:46:28.301Z,12.33
2018-12-09T15:49:00.761Z,12.23
2018-12-09T15:51:33.368Z,12.87
2018-12-09T15:54:05.720Z,12.63
2018-12-09T15:56:37.862Z,12.80
2018-12-09T15:59:09.975Z,9.03
2018-12-09T16:01:42.716Z,10.23
2018-12-09T16:04:15.134Z,10.47
2018-12-09T16:06:47.317Z,9.47
2018-12-09T16:09:19.780Z,9.63
2018-12-09T16:11:52.109Z,9.63
2018-12-09T16:14:24.850Z,10.57
2018-12-09T16:16:57.642Z,8.87
2018-12-09T16:19:30.802Z,8.87
2018-12-09T16:22:02.960Z,7.57
2018-12-09T16:24:35.798Z,8.43
2018-12-09T16:27:08.666Z,7.97
2018-12-09T16:29:42.140Z,8.27
2018-12-09T16:32:14.426Z,8.40
2018-12-09T16:34:46.903Z,9.53
2018-12-09T16:37:19.370Z,8.80
2018-12-09T16:39:53.098Z,7.87
2018-12-09T16:42:25.327Z,7.67
2018-12-09T16:44:58.687Z,7.97
2018-12-09T16:47:30.985Z,8.57
2018-12-09T16:50:03.373Z,9.27
2018-12-09T16:52:37.017Z,9.00
2018-12-09T16:55:09.515Z,10.47
2018-12-09T16:57:41.921Z,11.10
2018-12-09T17:00:15.903Z,10.60
2018-12-09T17:02:48.500Z,9.97
2018-12-09T17:05:21.050Z,11.13
2018-12-09T17:07:53.897Z,10.07
2018-12-09T17:10:26.831Z,8.70
2018-12-09T17:13:00.660Z,8.30
2018-12-09T17:15:33.251Z,10.47
2018-12-09T17:18:05.915Z,9.33
2018-12-09T17:20:37.944Z,9.60
2018-12-09T17:23:10.146Z,9.90
2018-12-09T17:25:43.473Z,10.47
2018-12-09T17:28:16.369Z,10.67
2018-12-09T17:30:50.374Z,10.93
2018-12-09T17:33:24.147Z,10.80
2018-12-09T17:35:56.720Z,9.87
2018-12-09T17:38:29.592Z,11.67
2018-12-09T17:41:01.724Z,10.87
2018-12-09T17:43:33.973Z,11.60
2018-12-09T17:46:06.061Z,15.70
2018-12-09T17:48:38.274Z,14.67
2018-12-09T17:51:12.905Z,13.33
2018-12-09T17:53:45.585Z,13.43
2018-12-09T17:56:18.755Z,12.00
2018-12-09T17:58:51.010Z,11.73
2018-12-09T18:01:24.199Z,12.00
2018-12-09T18:03:56.789Z,9.87
2018-12-09T18:06:30.287Z,11.97
2018-12-09T18:09:03.081Z,10.70
2018-12-09T18:11:36.419Z,11.63
2018-12-09T18:14:08.957Z,12.53
2018-12-09T18:16:41.516Z,14.93
2018-12-09T18:19:14.316Z,13.97
2018-12-09T18:21:46.959Z,17.73
2018-12-09T18:24:20.372Z,22.97
2018-12-09T18:26:52.942Z,19.80
2018-12-09T18:29:25.356Z,22.83
2018-12-09T18:31:58.378Z,24.63
2018-12-09T18:34:30.806Z,27.70
2018-12-09T18:37:03.163Z,31.90
2018-12-09T18:39:36.215Z,23.50
2018-12-09T18:42:08.868Z,19.47
2018-12-09T18:44:41.709Z,17.83
2018-12-09T18:47:14.244Z,14.60
2018-12-09T18:49:46.496Z,14.30
2018-12-09T18:52:18.637Z,19.87
2018-12-09T18:54:51.052Z,21.80
2018-12-09T18:57:23.428Z,28.47
2018-12-09T18:59:57.637Z,14.93
2018-12-09T19:02:30.067Z,20.27
2018-12-09T19:05:02.285Z,20.03
2018-12-09T19:07:34.695Z,17.63
2018-12-09T19:10:07.465Z,19.77
2018-12-09T19:12:39.935Z,15.70
2018-12-09T19:15:12.014Z,13.63
2018-12-09T19:17:44.513Z,14.63
2018-12-09T19:20:17.131Z,16.47
2018-12-09T19:22:49.476Z,18.70
2018-12-09T19:25:22.065Z,17.87
2018-12-09T19:27:55.463Z,13.20
2018-12-09T19:30:28.411Z,13.07
2018-12-09T19:33:00.781Z,19.87
2018-12-09T19:35:32.840Z,17.37
2018-12-09T19:38:05.097Z,18.20
2018-12-09T19:40:38.389Z,16.13
2018-12-09T19:43:10.687Z,17.10
2018-12-09T19:45:42.903Z,15.53
2018-12-09T19:48:16.386Z,17.43
2018-12-09T19:50:48.813Z,13.93
2018-12-09T19:53:21.627Z,17.03
2018-12-09T19:55:53.664Z,18.17
2018-12-09T19:58:25.983Z,15.43
2018-12-09T20:00:58.204Z,16.03
2018-12-09T20:03:31.173Z,15.00
2018-12-09T20:06:03.584Z,16.03
2018-12-09T20:08:36.008Z,16.50
2018-12-09T20:11:07.909Z,15.40
2018-12-09T20:13:40.083Z,14.23
2018-12-09T20:16:13.358Z,14.73
2018-12-09T20:18:45.690Z,15.70
2018-12-09T20:21:18.473Z,26.17
2018-12-09T20:23:50.837Z,28.83
2018-12-09T20:26:23.269Z,18.67
2018-12-09T20:28:55.641Z,36.13
2018-12-09T20:31:27.583Z,26.00
2018-12-09T20:34:00.409Z,26.57
2018-12-09T20:36:32.678Z,24.33
2018-12-09T20:39:06.121Z,24.63
2018-12-09T20:41:38.245Z,35.77
2018-12-09T20:44:10.517Z,34.37
2018-12-09T20:46:43.141Z,25.33
2018-12-09T20:49:15.700Z,28.80
2018-12-09T20:51:47.739Z,28.40
2018-12-09T20:54:19.701Z,24.67
2018-12-09T20:56:52.288Z,40.50
2018-12-09T20:59:24.431Z,32.27
2018-12-09T21:01:57.020Z,32.50
2018-12-09T21:04:29.107Z,32.27
2018-12-09T21:07:01.216Z,37.87
2018-12-09T21:09:34.222Z,32.00
2018-12-09T21:12:06.563Z,29.83
2018-12-09T21:14:38.332Z,27.80
2018-12-09T21:17:10.501Z,26.00
2018-12-09T21:19:42.736Z,25.40
2018-12-09T21:22:14.813Z,24.50
2018-12-09T21:24:47.340Z,28.83
2018-12-09T21:27:19.645Z,20.03
2018-12-09T21:29:51.920Z,29.47
2018-12-09T21:32:24.339Z,24.37
2018-12-09T21:34:56.236Z,27.73
2018-12-09T21:37:28.010Z,26.13
2018-12-09T21:40:00.949Z,23.37
2018-12-09T21:42:33.093Z,20.63
2018-12-09T21:45:05.696Z,23.20
2018-12-09T21:47:38.845Z,26.77
2018-12-09T21:50:11.142Z,26.27
2018-12-09T21:52:43.350Z,33.23
2018-12-09T21:55:15.443Z,36.53
2018-12-09T21:57:47.506Z,36.97
2018-12-09T22:00:20.579Z,39.77
2018-12-09T22:02:52.952Z,39.53
2018-12-09T22:05:25.297Z,38.53
2018-12-09T22:07:57.426Z,38.20
2018-12-09T22:10:29.452Z,40.07
2018-12-09T22:13:02.598Z,40.03
2018-12-09T22:15:34.451Z,39.57
2018-12-09T22:18:06.425Z,38.63
2018-12-09T22:20:38.535Z,39.50
2018-12-09T22:23:10.381Z,42.10
2018-12-09T22:25:42.496Z,39.77
2018-12-09T22:28:14.510Z,38.93
2018-12-09T22:30:46.609Z,39.00
2018-12-09T22:33:18.765Z,36.90
2018-12-09T22:35:50.791Z,37.10
2018-12-09T22:38:22.929Z,39.43
2018-12-09T22:40:54.765Z,36.13
2018-12-09T22:43:26.458Z,34.13
2018-12-09T22:45:58.715Z,36.63
2018-12-09T22:48:30.924Z,34.87
2018-12-09T22:51:03.094Z,26.63
2018-12-09T22:53:35.184Z,24.57
2018-12-09T22:56:07.074Z,21.90
2018-12-09T22:58:39.883Z,24.47
2018-12-09T23:01:16.699Z,24.07
2018-12-09T23:03:48.657Z,24.70
2018-12-09T23:06:20.522Z,25.90
2018-12-09T23:08:52.439Z,23.77
2018-12-09T23:11:24.439Z,24.47
2018-12-09T23:13:56.733Z,22.33
2018-12-09T23:16:28.600Z,28.20
2018-12-09T23:19:00.398Z,23.40
2018-12-09T23:21:32.417Z,24.83
2018-12-09T23:24:04.255Z,22.57
2018-12-09T23:26:36.577Z,21.70
2018-12-09T23:29:08.611Z,22.30
2018-12-09T23:31:40.691Z,21.90
2018-12-09T23:34:12.563Z,20.57
2018-12-09T23:36:44.391Z,21.07
2018-12-09T23:39:16.612Z,19.23
2018-12-09T23:41:48.508Z,21.47
2018-12-09T23:44:20.462Z,19.60
2018-12-09T23:46:52.440Z,20.47
2018-12-09T23:49:24.608Z,21.50
2018-12-09T23:51:56.393Z,20.70
2018-12-09T23:54:28.319Z,23.10
2018-12-09T23:57:01.183Z,22.43
2018-12-09T23:59:33.133Z,22.03
